Koyo — JD2279 — position and weather

sailwx.info

Track history (hours):
 
Tides and Currents Weather Stations Pressure Air Temp Water Temp Dewpoint Dewpoint Depression Visibility Wind Speed Wind Dir Waves Ship Positions

Koyo

Last reported at 2018-Jul-18 08:29 UTC. Time now 2018-Jul-18 14:35 UTC.
Position N 34°25' E 134°22'.

Length 80 m; draft 3.7 m.

Type: Cargo ship. MMSI: 431301812.

Date/timePositionNaut miles runAvg speedWind from/ knotsBaromVisibWave heightAir tempDewpointWater temp
2018-Jul-18 08:29N 34°25' E 134°22'611.4
2018-Jul-18 07:58N 34°28' E 134°28'511.5
2018-Jul-18 07:30N 34°30' E 134°34'611.6
2018-Jul-18 07:00N 34°32' E 134°41'611.8
2018-Jul-18 06:30N 34°34' E 134°47'611.8
2018-Jul-18 06:00N 34°36' E 134°54'611.5
2018-Jul-18 05:28N 34°37' E 135°01'510.8
2018-Jul-18 05:00N 34°36' E 135°07'611.8
2018-Jul-18 04:30N 34°37' E 135°14'611.2
2018-Jul-18 04:00N 34°38' E 135°21'3 6.7
2018-Jul-18 03:29N 34°38' E 135°25'0 0.0
2018-Jul-18 02:56N 34°38' E 135°25'0 0.0
2018-Jul-18 02:20N 34°38' E 135°25'0 0.0
2018-Jul-18 01:50N 34°38' E 135°25'0 0.0
2018-Jul-18 01:30N 34°38' E 135°25'510.0
2018-Jul-18 01:00N 34°37' E 135°19'4 7.1
2018-Jul-18 00:22N 34°39' E 135°15'0 0.0
2018-Jul-17 23:52N 34°39' E 135°15'0 0.0
2018-Jul-17 23:28N 34°39' E 135°15'0 1.0
2018-Jul-17 23:00N 34°39' E 135°15'0 0.6
2018-Jul-17 22:23N 34°39' E 135°15'0 0.0
2018-Jul-17 21:56N 34°39' E 135°15'0 0.0
2018-Jul-17 21:26N 34°39' E 135°15'0 0.0
2018-Jul-17 20:56N 34°39' E 135°15'0 0.0
2018-Jul-17 20:29N 34°39' E 135°15'4 8.2
2018-Jul-17 20:01N 34°37' E 135°11'612.3
2018-Jul-17 19:31N 34°35' E 135°04'712.0
2018-Jul-17 18:57N 34°36' E 134°55'511.5
2018-Jul-17 18:30N 34°34' E 134°50'711.6
2018-Jul-17 17:52N 34°31' E 134°42'512.7
2018-Jul-17 17:29N 34°29' E 134°36'712.9
2018-Jul-17 16:59N 34°26' E 134°29'612.4
2018-Jul-17 16:28N 34°24' E 134°22'9 0.3
2018-Jul-16 08:31N 34°25' E 134°11'011.3
2018-Jul-16 08:28N 34°25' E 134°12'510.8
2018-Jul-16 07:59N 34°24' E 134°18'612.0
2018-Jul-16 07:30N 34°26' E 134°25'612.4
2018-Jul-16 07:00N 34°28' E 134°32'612.1
2018-Jul-16 06:30N 34°30' E 134°39'611.9
2018-Jul-16 06:00N 34°32' E 134°45'611.1
2018-Jul-16 05:30N 34°35' E 134°51'510.6
2018-Jul-16 04:59N 34°37' E 134°57'5 9.7
2018-Jul-16 04:30N 34°36' E 135°03'611.6
2018-Jul-16 04:00N 34°37' E 135°10'612.4
2018-Jul-16 03:30N 34°38' E 135°18'611.0
2018-Jul-16 03:00N 34°38' E 135°24'1 1.3
2018-Jul-16 02:30N 34°38' E 135°25'0 0.0
2018-Jul-16 02:00N 34°38' E 135°25'0 0.0
2018-Jul-16 01:27N 34°38' E 135°25'2 3.9
2018-Jul-16 01:00N 34°38' E 135°23'5 9.4
2018-Jul-16 00:30N 34°38' E 135°17'3 5.1
2018-Jul-15 23:56N 34°40' E 135°14'0 0.0
2018-Jul-15 23:03N 34°40' E 135°14'0 0.1
2018-Jul-15 22:59N 34°40' E 135°14'2 4.4
2018-Jul-15 22:30N 34°41' E 135°13'0 0.0
2018-Jul-15 21:52N 34°41' E 135°13'0 0.0
2018-Jul-15 21:28N 34°41' E 135°13'0 0.0
2018-Jul-15 20:28N 34°41' E 135°13'0 0.0
2018-Jul-15 19:58N 34°41' E 135°13'0 0.0
2018-Jul-15 19:28N 34°41' E 135°13'0 0.0
2018-Jul-15 18:58N 34°41' E 135°13'0 0.0
2018-Jul-15 18:28N 34°41' E 135°13'0 0.0
2018-Jul-15 17:58N 34°41' E 135°13'0 0.0
2018-Jul-15 17:10N 34°41' E 135°13'0 0.0
2018-Jul-15 16:52N 34°41' E 135°13'0 0.0
2018-Jul-15 15:52N 34°41' E 135°13'0 0.0
2018-Jul-15 15:16N 34°41' E 135°13'0 0.0
2018-Jul-15 14:52N 34°41' E 135°13'0 0.0
2018-Jul-15 14:16N 34°41' E 135°13'0 0.0
2018-Jul-15 13:46N 34°41' E 135°13'0 0.0
2018-Jul-15 13:28N 34°41' E 135°13'0 0.0
2018-Jul-15 12:58N 34°41' E 135°13'0 0.0
2018-Jul-15 12:28N 34°41' E 135°13'0 0.0
2018-Jul-15 11:58N 34°41' E 135°13'0 0.0
2018-Jul-15 11:28N 34°41' E 135°13'0 0.0
2018-Jul-15 10:58N 34°41' E 135°13'0 0.0
2018-Jul-15 10:22N 34°41' E 135°13'0 0.0
2018-Jul-15 09:58N 34°41' E 135°13'0 0.0
2018-Jul-15 09:28N 34°41' E 135°13'0 0.0
2018-Jul-15 08:58N 34°41' E 135°13'0 0.0
2018-Jul-15 08:28N 34°41' E 135°13'0 0.0
2018-Jul-15 07:58N 34°41' E 135°13'0 0.0
2018-Jul-15 07:28N 34°41' E 135°13'0 0.0
2018-Jul-15 06:52N 34°41' E 135°13'0 0.0
2018-Jul-15 06:28N 34°41' E 135°13'0 0.0
2018-Jul-15 05:58N 34°41' E 135°13'0 0.0
2018-Jul-15 05:28N 34°41' E 135°13'0 0.0
2018-Jul-15 04:58N 34°41' E 135°13'0 0.0
2018-Jul-15 04:28N 34°41' E 135°13'0 0.0
2018-Jul-15 03:58N 34°41' E 135°13'0 0.0
2018-Jul-15 03:16N 34°41' E 135°13'0 0.0
2018-Jul-15 02:58N 34°41' E 135°13'0 0.0
2018-Jul-15 02:16N 34°41' E 135°13'0 0.0
2018-Jul-15 01:58N 34°41' E 135°13'0 0.0
2018-Jul-15 01:16N 34°41' E 135°13'0 0.0
2018-Jul-15 00:58N 34°41' E 135°13'0 0.0
2018-Jul-15 00:28N 34°41' E 135°13'0 0.0
2018-Jul-14 23:58N 34°41' E 135°13'0 0.0
2018-Jul-14 23:28N 34°41' E 135°13'0 0.0
2018-Jul-14 22:52N 34°41' E 135°13'0 0.0
2018-Jul-14 22:28N 34°41' E 135°13'0 0.0
2018-Jul-14 21:58N 34°41' E 135°13'0 0.0
2018-Jul-14 21:22N 34°41' E 135°13'0 0.0
2018-Jul-14 20:58N 34°41' E 135°13'0 0.0
2018-Jul-14 20:28N 34°41' E 135°13'0 0.0
2018-Jul-14 19:58N 34°41' E 135°13'0 0.0
2018-Jul-14 19:28N 34°41' E 135°13'0 0.0
2018-Jul-14 18:52N 34°41' E 135°13'0 0.0
2018-Jul-14 18:22N 34°41' E 135°13'0 0.0
2018-Jul-14 17:58N 34°41' E 135°13'0 0.0
2018-Jul-14 17:28N 34°41' E 135°13'0 0.0
2018-Jul-14 16:58N 34°41' E 135°13'0 0.0
2018-Jul-14 16:28N 34°41' E 135°13'0 0.0
2018-Jul-14 15:52N 34°41' E 135°13'0 0.0
2018-Jul-14 15:28N 34°41' E 135°13'0 0.0
2018-Jul-14 14:58N 34°41' E 135°13'0 0.0
2018-Jul-14 13:52N 34°41' E 135°13'0 0.0
2018-Jul-14 13:28N 34°41' E 135°13'0 0.0
2018-Jul-14 12:58N 34°41' E 135°13'0 0.0
2018-Jul-14 12:30N 34°41' E 135°13'2 4.8
2018-Jul-14 12:00N 34°40' E 135°15'510.7
2018-Jul-14 11:30N 34°37' E 135°10'611.5
2018-Jul-14 11:00N 34°36' E 135°03'4 6.6
2018-Jul-14 10:25N 34°37' E 134°59'510.5
2018-Jul-14 09:55N 34°35' E 134°53'512.2
2018-Jul-14 09:30N 34°33' E 134°47'612.8
2018-Jul-14 09:00N 34°30' E 134°40'713.5
2018-Jul-14 08:30N 34°28' E 134°33'713.4
2018-Jul-14 07:57N 34°25' E 134°24'613.8
2018-Jul-14 07:30N 34°24' E 134°17'3 0.2
2018-Jul-13 17:21N 34°24' E 134°13'411.3
2018-Jul-13 17:01N 34°23' E 134°17'611.5
2018-Jul-13 16:30N 34°25' E 134°24'713.2
2018-Jul-13 16:01N 34°28' E 134°31'612.8
2018-Jul-13 15:30N 34°30' E 134°38'713.7
2018-Jul-13 15:00N 34°33' E 134°46'1413.8
2018-Jul-13 13:59N 34°37' E 135°02'611.9
2018-Jul-13 13:31N 34°37' E 135°09'510.6
2018-Jul-13 13:00N 34°39' E 135°15'0 0.4
2018-Jul-13 12:24N 34°39' E 135°15'0 0.0
2018-Jul-13 11:54N 34°39' E 135°15'0 0.0
2018-Jul-13 11:30N 34°39' E 135°15'4 7.2
2018-Jul-13 11:00N 34°36' E 135°15'713.3
2018-Jul-13 10:30N 34°30' E 135°11'713.4
2018-Jul-13 10:00N 34°25' E 135°06'714.0
2018-Jul-13 09:30N 34°19' E 135°01'510.3
2018-Jul-13 09:01N 34°14' E 135°04'4 8.9
2018-Jul-13 08:30N 34°12' E 135°09'0 0.0
2018-Jul-13 07:59N 34°12' E 135°09'1 1.5
2018-Jul-13 07:30N 34°13' E 135°08'612.2
2018-Jul-13 07:00N 34°10' E 135°01'611.7
2018-Jul-13 06:30N 34°08' E 134°55'12 4.5
2018-Jul-13 03:58N 34°04' E 134°42'612.6
2018-Jul-13 03:30N 34°08' E 134°47'612.3
2018-Jul-13 03:00N 34°11' E 134°53'713.9
2018-Jul-13 02:30N 34°16' E 134°58'713.7
2018-Jul-13 02:00N 34°23' E 135°02'713.3
2018-Jul-13 01:30N 34°27' E 135°07'612.7
2018-Jul-13 01:00N 34°32' E 135°13'612.5
2018-Jul-13 00:30N 34°38' E 135°15'1 2.8
2018-Jul-13 00:00N 34°39' E 135°15'0 0.0
2018-Jul-12 23:30N 34°39' E 135°15'0 0.3
2018-Jul-12 23:00N 34°39' E 135°15'1 1.2
2018-Jul-12 22:29N 34°39' E 135°15'0 0.1
2018-Jul-12 21:47N 34°39' E 135°15'0 0.0
2018-Jul-12 21:11N 34°39' E 135°15'0 0.0
2018-Jul-12 20:11N 34°39' E 135°15'0 0.0
2018-Jul-12 19:53N 34°39' E 135°15'0 0.0
2018-Jul-12 19:23N 34°39' E 135°15'0 0.1
2018-Jul-12 18:53N 34°39' E 135°15'0 0.0
2018-Jul-12 18:29N 34°39' E 135°15'0 0.0
2018-Jul-12 17:59N 34°39' E 135°15'0 0.0
2018-Jul-12 16:47N 34°39' E 135°15'0 0.2
2018-Jul-12 16:29N 34°39' E 135°15'0 0.1
2018-Jul-12 15:53N 34°39' E 135°15'0 0.1
2018-Jul-12 15:24N 34°39' E 135°15'3 8.2
2018-Jul-12 15:00N 34°37' E 135°12'713.0
2018-Jul-12 14:30N 34°35' E 135°04'611.7
2018-Jul-12 14:00N 34°35' E 134°57'611.5
2018-Jul-12 13:30N 34°34' E 134°50'711.2
2018-Jul-12 12:54N 34°31' E 134°43'512.4
2018-Jul-12 12:28N 34°29' E 134°37'1412.6
2018-Jul-12 11:20N 34°24' E 134°20'6 0.4
2018-Jul-11 18:42N 34°24' E 134°13'512.0
2018-Jul-11 18:19N 34°25' E 134°19'412.8
2018-Jul-11 18:00N 34°26' E 134°24'713.5
2018-Jul-11 17:30N 34°29' E 134°31'612.9
2018-Jul-11 17:00N 34°31' E 134°38'713.0
2018-Jul-11 16:30N 34°33' E 134°46'611.8
2018-Jul-11 16:00N 34°35' E 134°52'510.9
2018-Jul-11 15:30N 34°37' E 134°59'510.0
2018-Jul-11 15:00N 34°36' E 135°04'612.7
2018-Jul-11 14:30N 34°37' E 135°12'713.0
2018-Jul-11 14:00N 34°38' E 135°20'4 8.6
2018-Jul-11 13:29N 34°38' E 135°25'0 0.0
2018-Jul-11 13:00N 34°38' E 135°25'0 0.0
2018-Jul-11 12:30N 34°38' E 135°25'0 0.3
2018-Jul-11 12:00N 34°37' E 135°25'5 9.9
2018-Jul-11 11:30N 34°37' E 135°19'4 8.7
2018-Jul-11 11:00N 34°39' E 135°15'0 0.0
2018-Jul-11 10:10N 34°39' E 135°15'0 0.0
2018-Jul-11 10:00N 34°39' E 135°15'0 0.7
2018-Jul-11 09:30N 34°39' E 135°15'3 5.6
2018-Jul-11 09:00N 34°41' E 135°13'0 0.0
2018-Jul-11 08:17N 34°41' E 135°13'0 0.0
2018-Jul-11 07:59N 34°41' E 135°13'0 0.0
2018-Jul-11 07:29N 34°41' E 135°13'0 0.0
2018-Jul-11 06:53N 34°41' E 135°13'0 0.0
2018-Jul-11 06:23N 34°41' E 135°13'0 0.0
2018-Jul-11 05:59N 34°41' E 135°13'0 0.0
2018-Jul-11 05:23N 34°41' E 135°13'0 0.0
2018-Jul-11 04:59N 34°41' E 135°13'0 0.0
2018-Jul-11 04:29N 34°41' E 135°13'0 0.0
2018-Jul-11 03:53N 34°41' E 135°13'0 0.0
2018-Jul-11 03:23N 34°41' E 135°13'0 0.0
2018-Jul-11 02:59N 34°41' E 135°13'0 0.0
2018-Jul-11 02:29N 34°41' E 135°13'0 0.0
2018-Jul-11 01:59N 34°41' E 135°13'0 0.0
2018-Jul-11 01:29N 34°41' E 135°13'0 0.0
2018-Jul-11 00:59N 34°41' E 135°13'0 0.0
2018-Jul-11 00:30N 34°41' E 135°13'2 4.2
2018-Jul-11 00:00N 34°40' E 135°15'1 1.4
2018-Jul-10 23:25N 34°39' E 135°15'0 0.7
2018-Jul-10 23:00N 34°39' E 135°15'3 5.2
2018-Jul-10 22:30N 34°37' E 135°13'510.7
2018-Jul-10 22:00N 34°35' E 135°07'5 9.9
2018-Jul-10 21:30N 34°37' E 135°01'7 9.5
2018-Jul-10 20:43N 34°34' E 134°53'1010.5
2018-Jul-10 19:47N 34°30' E 134°42'310.6
2018-Jul-10 19:29N 34°29' E 134°38'711.1
2018-Jul-10 18:53N 34°26' E 134°31'411.3
2018-Jul-10 18:30N 34°25' E 134°26'4 0.1
2018-Jul-09 07:24N 34°25' E 134°21'613.3
2018-Jul-09 06:57N 34°28' E 134°28'612.6
2018-Jul-09 06:29N 34°30' E 134°34'612.5
2018-Jul-09 06:00N 34°32' E 134°41'612.4
2018-Jul-09 05:30N 34°34' E 134°48'712.9
2018-Jul-09 04:59N 34°37' E 134°56'511.6
2018-Jul-09 04:30N 34°37' E 135°03'611.9
2018-Jul-09 04:00N 34°36' E 135°10'611.9
2018-Jul-09 03:30N 34°37' E 135°17'611.4
2018-Jul-09 03:00N 34°38' E 135°24'1 1.3
2018-Jul-09 02:25N 34°38' E 135°25'0 0.0
2018-Jul-09 01:55N 34°38' E 135°25'0 0.0
2018-Jul-09 01:26N 34°38' E 135°25'3 6.7
2018-Jul-09 01:00N 34°37' E 135°22'510.9
2018-Jul-09 00:30N 34°39' E 135°15'1 1.5
2018-Jul-08 23:55N 34°39' E 135°14'0 0.0
2018-Jul-08 23:23N 34°39' E 135°14'1 1.9
2018-Jul-08 23:00N 34°39' E 135°15'0 0.4
2018-Jul-08 22:26N 34°39' E 135°15'0 0.0
2018-Jul-08 21:38N 34°39' E 135°15'0 0.0
2018-Jul-08 21:20N 34°39' E 135°15'0 0.0
2018-Jul-08 20:56N 34°39' E 135°15'0 0.0
2018-Jul-08 20:26N 34°39' E 135°15'0 0.0
2018-Jul-08 19:56N 34°39' E 135°15'0 0.0
2018-Jul-08 19:26N 34°39' E 135°15'0 0.1
2018-Jul-08 18:56N 34°39' E 135°15'0 0.1
2018-Jul-08 18:26N 34°39' E 135°15'0 0.1
2018-Jul-08 17:56N 34°39' E 135°15'0 0.0
2018-Jul-08 17:20N 34°39' E 135°15'0 0.0
2018-Jul-08 16:56N 34°39' E 135°15'0 0.0
2018-Jul-08 16:26N 34°39' E 135°15'0 0.0
2018-Jul-08 15:59N 34°39' E 135°15'0 0.4
2018-Jul-08 15:30N 34°39' E 135°15'511.0
2018-Jul-08 15:00N 34°36' E 135°09'713.1
2018-Jul-08 14:30N 34°37' E 135°01'713.7
2018-Jul-08 14:00N 34°35' E 134°53'814.1
2018-Jul-08 13:25N 34°32' E 134°44'613.6
2018-Jul-08 12:59N 34°30' E 134°37'  
Track history (hours):
 
Tides and Currents Weather Stations Pressure Air Temp Water Temp Dewpoint Dewpoint Depression Visibility Wind Speed Wind Dir Waves Ship Positions

Koyo

Last reported at 2018-Jul-18 08:29 UTC. Time now 2018-Jul-18 14:35 UTC.
Position N 34°25' E 134°22'.

Length 80 m; draft 3.7 m.

Type: Cargo ship. MMSI: 431301812.

Date/timePositionNaut miles runAvg speedWind from/ knotsBaromVisibWave heightAir tempDewpointWater temp
2018-Jul-18 08:29N 34°25' E 134°22'611.4
2018-Jul-18 07:58N 34°28' E 134°28'511.5
2018-Jul-18 07:30N 34°30' E 134°34'611.6
2018-Jul-18 07:00N 34°32' E 134°41'611.8
2018-Jul-18 06:30N 34°34' E 134°47'611.8
2018-Jul-18 06:00N 34°36' E 134°54'611.5
2018-Jul-18 05:28N 34°37' E 135°01'510.8
2018-Jul-18 05:00N 34°36' E 135°07'611.8
2018-Jul-18 04:30N 34°37' E 135°14'611.2
2018-Jul-18 04:00N 34°38' E 135°21'3 6.7
2018-Jul-18 03:29N 34°38' E 135°25'0 0.0
2018-Jul-18 02:56N 34°38' E 135°25'0 0.0
2018-Jul-18 02:20N 34°38' E 135°25'0 0.0
2018-Jul-18 01:50N 34°38' E 135°25'0 0.0
2018-Jul-18 01:30N 34°38' E 135°25'510.0
2018-Jul-18 01:00N 34°37' E 135°19'4 7.1
2018-Jul-18 00:22N 34°39' E 135°15'0 0.0
2018-Jul-17 23:52N 34°39' E 135°15'0 0.0
2018-Jul-17 23:28N 34°39' E 135°15'0 1.0
2018-Jul-17 23:00N 34°39' E 135°15'0 0.6
2018-Jul-17 22:23N 34°39' E 135°15'0 0.0
2018-Jul-17 21:56N 34°39' E 135°15'0 0.0
2018-Jul-17 21:26N 34°39' E 135°15'0 0.0
2018-Jul-17 20:56N 34°39' E 135°15'0 0.0
2018-Jul-17 20:29N 34°39' E 135°15'4 8.2
2018-Jul-17 20:01N 34°37' E 135°11'612.3
2018-Jul-17 19:31N 34°35' E 135°04'712.0
2018-Jul-17 18:57N 34°36' E 134°55'511.5
2018-Jul-17 18:30N 34°34' E 134°50'711.6
2018-Jul-17 17:52N 34°31' E 134°42'512.7
2018-Jul-17 17:29N 34°29' E 134°36'712.9
2018-Jul-17 16:59N 34°26' E 134°29'612.4
2018-Jul-17 16:28N 34°24' E 134°22'9 0.3
2018-Jul-16 08:31N 34°25' E 134°11'011.3
2018-Jul-16 08:28N 34°25' E 134°12'510.8
2018-Jul-16 07:59N 34°24' E 134°18'612.0
2018-Jul-16 07:30N 34°26' E 134°25'612.4
2018-Jul-16 07:00N 34°28' E 134°32'612.1
2018-Jul-16 06:30N 34°30' E 134°39'611.9
2018-Jul-16 06:00N 34°32' E 134°45'611.1
2018-Jul-16 05:30N 34°35' E 134°51'510.6
2018-Jul-16 04:59N 34°37' E 134°57'5 9.7
2018-Jul-16 04:30N 34°36' E 135°03'611.6
2018-Jul-16 04:00N 34°37' E 135°10'612.4
2018-Jul-16 03:30N 34°38' E 135°18'611.0
2018-Jul-16 03:00N 34°38' E 135°24'1 1.3
2018-Jul-16 02:30N 34°38' E 135°25'0 0.0
2018-Jul-16 02:00N 34°38' E 135°25'0 0.0
2018-Jul-16 01:27N 34°38' E 135°25'2 3.9
2018-Jul-16 01:00N 34°38' E 135°23'5 9.4
2018-Jul-16 00:30N 34°38' E 135°17'3 5.1
2018-Jul-15 23:56N 34°40' E 135°14'0 0.0
2018-Jul-15 23:03N 34°40' E 135°14'0 0.1
2018-Jul-15 22:59N 34°40' E 135°14'2 4.4
2018-Jul-15 22:30N 34°41' E 135°13'0 0.0
2018-Jul-15 21:52N 34°41' E 135°13'0 0.0
2018-Jul-15 21:28N 34°41' E 135°13'0 0.0
2018-Jul-15 20:28N 34°41' E 135°13'0 0.0
2018-Jul-15 19:58N 34°41' E 135°13'0 0.0
2018-Jul-15 19:28N 34°41' E 135°13'0 0.0
2018-Jul-15 18:58N 34°41' E 135°13'0 0.0
2018-Jul-15 18:28N 34°41' E 135°13'0 0.0
2018-Jul-15 17:58N 34°41' E 135°13'0 0.0
2018-Jul-15 17:10N 34°41' E 135°13'0 0.0
2018-Jul-15 16:52N 34°41' E 135°13'0 0.0
2018-Jul-15 15:52N 34°41' E 135°13'0 0.0
2018-Jul-15 15:16N 34°41' E 135°13'0 0.0
2018-Jul-15 14:52N 34°41' E 135°13'0 0.0
2018-Jul-15 14:16N 34°41' E 135°13'0 0.0
2018-Jul-15 13:46N 34°41' E 135°13'0 0.0
2018-Jul-15 13:28N 34°41' E 135°13'0 0.0
2018-Jul-15 12:58N 34°41' E 135°13'0 0.0
2018-Jul-15 12:28N 34°41' E 135°13'0 0.0
2018-Jul-15 11:58N 34°41' E 135°13'0 0.0
2018-Jul-15 11:28N 34°41' E 135°13'0 0.0
2018-Jul-15 10:58N 34°41' E 135°13'0 0.0
2018-Jul-15 10:22N 34°41' E 135°13'0 0.0
2018-Jul-15 09:58N 34°41' E 135°13'0 0.0
2018-Jul-15 09:28N 34°41' E 135°13'0 0.0
2018-Jul-15 08:58N 34°41' E 135°13'0 0.0
2018-Jul-15 08:28N 34°41' E 135°13'0 0.0
2018-Jul-15 07:58N 34°41' E 135°13'0 0.0
2018-Jul-15 07:28N 34°41' E 135°13'0 0.0
2018-Jul-15 06:52N 34°41' E 135°13'0 0.0
2018-Jul-15 06:28N 34°41' E 135°13'0 0.0
2018-Jul-15 05:58N 34°41' E 135°13'0 0.0
2018-Jul-15 05:28N 34°41' E 135°13'0 0.0
2018-Jul-15 04:58N 34°41' E 135°13'0 0.0
2018-Jul-15 04:28N 34°41' E 135°13'0 0.0
2018-Jul-15 03:58N 34°41' E 135°13'0 0.0
2018-Jul-15 03:16N 34°41' E 135°13'0 0.0
2018-Jul-15 02:58N 34°41' E 135°13'0 0.0
2018-Jul-15 02:16N 34°41' E 135°13'0 0.0
2018-Jul-15 01:58N 34°41' E 135°13'0 0.0
2018-Jul-15 01:16N 34°41' E 135°13'0 0.0
2018-Jul-15 00:58N 34°41' E 135°13'0 0.0
2018-Jul-15 00:28N 34°41' E 135°13'0 0.0
2018-Jul-14 23:58N 34°41' E 135°13'0 0.0
2018-Jul-14 23:28N 34°41' E 135°13'0 0.0
2018-Jul-14 22:52N 34°41' E 135°13'0 0.0
2018-Jul-14 22:28N 34°41' E 135°13'0 0.0
2018-Jul-14 21:58N 34°41' E 135°13'0 0.0
2018-Jul-14 21:22N 34°41' E 135°13'0 0.0
2018-Jul-14 20:58N 34°41' E 135°13'0 0.0
2018-Jul-14 20:28N 34°41' E 135°13'0 0.0
2018-Jul-14 19:58N 34°41' E 135°13'0 0.0
2018-Jul-14 19:28N 34°41' E 135°13'0 0.0
2018-Jul-14 18:52N 34°41' E 135°13'0 0.0
2018-Jul-14 18:22N 34°41' E 135°13'0 0.0
2018-Jul-14 17:58N 34°41' E 135°13'0 0.0
2018-Jul-14 17:28N 34°41' E 135°13'0 0.0
2018-Jul-14 16:58N 34°41' E 135°13'0 0.0
2018-Jul-14 16:28N 34°41' E 135°13'0 0.0
2018-Jul-14 15:52N 34°41' E 135°13'0 0.0
2018-Jul-14 15:28N 34°41' E 135°13'0 0.0
2018-Jul-14 14:58N 34°41' E 135°13'0 0.0
2018-Jul-14 13:52N 34°41' E 135°13'0 0.0
2018-Jul-14 13:28N 34°41' E 135°13'0 0.0
2018-Jul-14 12:58N 34°41' E 135°13'0 0.0
2018-Jul-14 12:30N 34°41' E 135°13'2 4.8
2018-Jul-14 12:00N 34°40' E 135°15'510.7
2018-Jul-14 11:30N 34°37' E 135°10'611.5
2018-Jul-14 11:00N 34°36' E 135°03'4 6.6
2018-Jul-14 10:25N 34°37' E 134°59'510.5
2018-Jul-14 09:55N 34°35' E 134°53'512.2
2018-Jul-14 09:30N 34°33' E 134°47'612.8
2018-Jul-14 09:00N 34°30' E 134°40'713.5
2018-Jul-14 08:30N 34°28' E 134°33'713.4
2018-Jul-14 07:57N 34°25' E 134°24'613.8
2018-Jul-14 07:30N 34°24' E 134°17'3 0.2
2018-Jul-13 17:21N 34°24' E 134°13'411.3
2018-Jul-13 17:01N 34°23' E 134°17'611.5
2018-Jul-13 16:30N 34°25' E 134°24'713.2
2018-Jul-13 16:01N 34°28' E 134°31'612.8
2018-Jul-13 15:30N 34°30' E 134°38'713.7
2018-Jul-13 15:00N 34°33' E 134°46'1413.8
2018-Jul-13 13:59N 34°37' E 135°02'611.9
2018-Jul-13 13:31N 34°37' E 135°09'510.6
2018-Jul-13 13:00N 34°39' E 135°15'0 0.4
2018-Jul-13 12:24N 34°39' E 135°15'0 0.0
2018-Jul-13 11:54N 34°39' E 135°15'0 0.0
2018-Jul-13 11:30N 34°39' E 135°15'4 7.2
2018-Jul-13 11:00N 34°36' E 135°15'713.3
2018-Jul-13 10:30N 34°30' E 135°11'713.4
2018-Jul-13 10:00N 34°25' E 135°06'714.0
2018-Jul-13 09:30N 34°19' E 135°01'510.3
2018-Jul-13 09:01N 34°14' E 135°04'4 8.9
2018-Jul-13 08:30N 34°12' E 135°09'0 0.0
2018-Jul-13 07:59N 34°12' E 135°09'1 1.5
2018-Jul-13 07:30N 34°13' E 135°08'612.2
2018-Jul-13 07:00N 34°10' E 135°01'611.7
2018-Jul-13 06:30N 34°08' E 134°55'12 4.5
2018-Jul-13 03:58N 34°04' E 134°42'612.6
2018-Jul-13 03:30N 34°08' E 134°47'612.3
2018-Jul-13 03:00N 34°11' E 134°53'713.9
2018-Jul-13 02:30N 34°16' E 134°58'713.7
2018-Jul-13 02:00N 34°23' E 135°02'713.3
2018-Jul-13 01:30N 34°27' E 135°07'612.7
2018-Jul-13 01:00N 34°32' E 135°13'612.5
2018-Jul-13 00:30N 34°38' E 135°15'1 2.8
2018-Jul-13 00:00N 34°39' E 135°15'0 0.0
2018-Jul-12 23:30N 34°39' E 135°15'0 0.3
2018-Jul-12 23:00N 34°39' E 135°15'1 1.2
2018-Jul-12 22:29N 34°39' E 135°15'0 0.1
2018-Jul-12 21:47N 34°39' E 135°15'0 0.0
2018-Jul-12 21:11N 34°39' E 135°15'0 0.0
2018-Jul-12 20:11N 34°39' E 135°15'0 0.0
2018-Jul-12 19:53N 34°39' E 135°15'0 0.0
2018-Jul-12 19:23N 34°39' E 135°15'0 0.1
2018-Jul-12 18:53N 34°39' E 135°15'0 0.0
2018-Jul-12 18:29N 34°39' E 135°15'0 0.0
2018-Jul-12 17:59N 34°39' E 135°15'0 0.0
2018-Jul-12 16:47N 34°39' E 135°15'0 0.2
2018-Jul-12 16:29N 34°39' E 135°15'0 0.1
2018-Jul-12 15:53N 34°39' E 135°15'0 0.1
2018-Jul-12 15:24N 34°39' E 135°15'3 8.2
2018-Jul-12 15:00N 34°37' E 135°12'713.0
2018-Jul-12 14:30N 34°35' E 135°04'611.7
2018-Jul-12 14:00N 34°35' E 134°57'611.5
2018-Jul-12 13:30N 34°34' E 134°50'711.2
2018-Jul-12 12:54N 34°31' E 134°43'512.4
2018-Jul-12 12:28N 34°29' E 134°37'1412.6
2018-Jul-12 11:20N 34°24' E 134°20'6 0.4
2018-Jul-11 18:42N 34°24' E 134°13'512.0
2018-Jul-11 18:19N 34°25' E 134°19'412.8
2018-Jul-11 18:00N 34°26' E 134°24'713.5
2018-Jul-11 17:30N 34°29' E 134°31'612.9
2018-Jul-11 17:00N 34°31' E 134°38'713.0
2018-Jul-11 16:30N 34°33' E 134°46'611.8
2018-Jul-11 16:00N 34°35' E 134°52'510.9
2018-Jul-11 15:30N 34°37' E 134°59'510.0
2018-Jul-11 15:00N 34°36' E 135°04'612.7
2018-Jul-11 14:30N 34°37' E 135°12'713.0
2018-Jul-11 14:00N 34°38' E 135°20'4 8.6
2018-Jul-11 13:29N 34°38' E 135°25'0 0.0
2018-Jul-11 13:00N 34°38' E 135°25'0 0.0
2018-Jul-11 12:30N 34°38' E 135°25'0 0.3
2018-Jul-11 12:00N 34°37' E 135°25'5 9.9
2018-Jul-11 11:30N 34°37' E 135°19'4 8.7
2018-Jul-11 11:00N 34°39' E 135°15'0 0.0
2018-Jul-11 10:10N 34°39' E 135°15'0 0.0
2018-Jul-11 10:00N 34°39' E 135°15'0 0.7
2018-Jul-11 09:30N 34°39' E 135°15'3 5.6
2018-Jul-11 09:00N 34°41' E 135°13'0 0.0
2018-Jul-11 08:17N 34°41' E 135°13'0 0.0
2018-Jul-11 07:59N 34°41' E 135°13'0 0.0
2018-Jul-11 07:29N 34°41' E 135°13'0 0.0
2018-Jul-11 06:53N 34°41' E 135°13'0 0.0
2018-Jul-11 06:23N 34°41' E 135°13'0 0.0
2018-Jul-11 05:59N 34°41' E 135°13'0 0.0
2018-Jul-11 05:23N 34°41' E 135°13'0 0.0
2018-Jul-11 04:59N 34°41' E 135°13'0 0.0
2018-Jul-11 04:29N 34°41' E 135°13'0 0.0
2018-Jul-11 03:53N 34°41' E 135°13'0 0.0
2018-Jul-11 03:23N 34°41' E 135°13'0 0.0
2018-Jul-11 02:59N 34°41' E 135°13'0 0.0
2018-Jul-11 02:29N 34°41' E 135°13'0 0.0
2018-Jul-11 01:59N 34°41' E 135°13'0 0.0
2018-Jul-11 01:29N 34°41' E 135°13'0 0.0
2018-Jul-11 00:59N 34°41' E 135°13'0 0.0
2018-Jul-11 00:30N 34°41' E 135°13'2 4.2
2018-Jul-11 00:00N 34°40' E 135°15'1 1.4
2018-Jul-10 23:25N 34°39' E 135°15'0 0.7
2018-Jul-10 23:00N 34°39' E 135°15'3 5.2
2018-Jul-10 22:30N 34°37' E 135°13'510.7
2018-Jul-10 22:00N 34°35' E 135°07'5 9.9
2018-Jul-10 21:30N 34°37' E 135°01'7 9.5
2018-Jul-10 20:43N 34°34' E 134°53'1010.5
2018-Jul-10 19:47N 34°30' E 134°42'310.6
2018-Jul-10 19:29N 34°29' E 134°38'711.1
2018-Jul-10 18:53N 34°26' E 134°31'411.3
2018-Jul-10 18:30N 34°25' E 134°26'4 0.1
2018-Jul-09 07:24N 34°25' E 134°21'613.3
2018-Jul-09 06:57N 34°28' E 134°28'612.6
2018-Jul-09 06:29N 34°30' E 134°34'612.5
2018-Jul-09 06:00N 34°32' E 134°41'612.4
2018-Jul-09 05:30N 34°34' E 134°48'712.9
2018-Jul-09 04:59N 34°37' E 134°56'511.6
2018-Jul-09 04:30N 34°37' E 135°03'611.9
2018-Jul-09 04:00N 34°36' E 135°10'611.9
2018-Jul-09 03:30N 34°37' E 135°17'611.4
2018-Jul-09 03:00N 34°38' E 135°24'1 1.3
2018-Jul-09 02:25N 34°38' E 135°25'0 0.0
2018-Jul-09 01:55N 34°38' E 135°25'0 0.0
2018-Jul-09 01:26N 34°38' E 135°25'3 6.7
2018-Jul-09 01:00N 34°37' E 135°22'510.9
2018-Jul-09 00:30N 34°39' E 135°15'1 1.5
2018-Jul-08 23:55N 34°39' E 135°14'0 0.0
2018-Jul-08 23:23N 34°39' E 135°14'1 1.9
2018-Jul-08 23:00N 34°39' E 135°15'0 0.4
2018-Jul-08 22:26N 34°39' E 135°15'0 0.0
2018-Jul-08 21:38N 34°39' E 135°15'0 0.0
2018-Jul-08 21:20N 34°39' E 135°15'0 0.0
2018-Jul-08 20:56N 34°39' E 135°15'0 0.0
2018-Jul-08 20:26N 34°39' E 135°15'0 0.0
2018-Jul-08 19:56N 34°39' E 135°15'0 0.0
2018-Jul-08 19:26N 34°39' E 135°15'0 0.1
2018-Jul-08 18:56N 34°39' E 135°15'0 0.1
2018-Jul-08 18:26N 34°39' E 135°15'0 0.1
2018-Jul-08 17:56N 34°39' E 135°15'0 0.0
2018-Jul-08 17:20N 34°39' E 135°15'0 0.0
2018-Jul-08 16:56N 34°39' E 135°15'0 0.0
2018-Jul-08 16:26N 34°39' E 135°15'0 0.0
2018-Jul-08 15:59N 34°39' E 135°15'0 0.4
2018-Jul-08 15:30N 34°39' E 135°15'511.0
2018-Jul-08 15:00N 34°36' E 135°09'713.1
2018-Jul-08 14:30N 34°37' E 135°01'713.7
2018-Jul-08 14:00N 34°35' E 134°53'814.1
2018-Jul-08 13:25N 34°32' E 134°44'613.6
2018-Jul-08 12:59N 34°30' E 134°37'  

Dump ship's entire track history